sensor_id;sensor_type;location;lat;lon;timestamp;temperature;humidity
29687;DHT22;16599;47.078;15.536;2023-05-29T00:00:48;11.90;99.90
29687;DHT22;16599;47.078;15.536;2023-05-29T00:03:15;11.90;99.90
29687;DHT22;16599;47.078;15.536;2023-05-29T00:05:44;11.90;99.90
29687;DHT22;16599;47.078;15.536;2023-05-29T00:08:11;11.90;99.90
29687;DHT22;16599;47.078;15.536;2023-05-29T00:10:40;11.90;99.90
29687;DHT22;16599;47.078;15.536;2023-05-29T00:13:07;11.80;99.90
29687;DHT22;16599;47.078;15.536;2023-05-29T00:15:35;11.70;99.90
29687;DHT22;16599;47.078;15.536;2023-05-29T00:18:02;11.70;99.90
29687;DHT22;16599;47.078;15.536;2023-05-29T00:20:29;11.60;99.90
29687;DHT22;16599;47.078;15.536;2023-05-29T00:22:56;11.60;99.90
29687;DHT22;16599;47.078;15.536;2023-05-29T00:25:23;11.50;99.90
29687;DHT22;16599;47.078;15.536;2023-05-29T00:27:50;11.60;99.90
29687;DHT22;16599;47.078;15.536;2023-05-29T00:30:17;11.60;99.90
29687;DHT22;16599;47.078;15.536;2023-05-29T00:32:44;11.60;99.90
29687;DHT22;16599;47.078;15.536;2023-05-29T00:35:12;11.60;99.90
29687;DHT22;16599;47.078;15.536;2023-05-29T00:37:39;11.60;99.90
29687;DHT22;16599;47.078;15.536;2023-05-29T00:40:07;11.70;99.90
29687;DHT22;16599;47.078;15.536;2023-05-29T00:42:34;11.60;99.90
29687;DHT22;16599;47.078;15.536;2023-05-29T00:45:01;11.70;99.90
29687;DHT22;16599;47.078;15.536;2023-05-29T00:47:29;11.60;99.90
29687;DHT22;16599;47.078;15.536;2023-05-29T00:49:56;11.50;99.90
29687;DHT22;16599;47.078;15.536;2023-05-29T00:52:25;11.50;99.90
29687;DHT22;16599;47.078;15.536;2023-05-29T00:54:52;11.40;99.90
29687;DHT22;16599;47.078;15.536;2023-05-29T00:57:20;11.30;99.90
29687;DHT22;16599;47.078;15.536;2023-05-29T00:59:47;11.20;99.90
29687;DHT22;16599;47.078;15.536;2023-05-29T01:02:15;11.10;99.90
29687;DHT22;16599;47.078;15.536;2023-05-29T01:04:44;11.10;99.90
29687;DHT22;16599;47.078;15.536;2023-05-29T01:07:11;11.30;99.90
29687;DHT22;16599;47.078;15.536;2023-05-29T01:09:39;11.20;99.90
29687;DHT22;16599;47.078;15.536;2023-05-29T01:22:45;11.00;99.90
29687;DHT22;16599;47.078;15.536;2023-05-29T01:28:11;11.00;99.90
29687;DHT22;16599;47.078;15.536;2023-05-29T01:30:40;11.00;99.90
29687;DHT22;16599;47.078;15.536;2023-05-29T01:33:07;10.90;99.90
29687;DHT22;16599;47.078;15.536;2023-05-29T01:35:35;11.00;99.90
29687;DHT22;16599;47.078;15.536;2023-05-29T01:38:02;11.00;99.90
29687;DHT22;16599;47.078;15.536;2023-05-29T01:40:29;10.90;99.90
29687;DHT22;16599;47.078;15.536;2023-05-29T01:42:57;10.80;99.90
29687;DHT22;16599;47.078;15.536;2023-05-29T01:45:24;10.90;99.90
29687;DHT22;16599;47.078;15.536;2023-05-29T01:47:52;10.90;99.90
29687;DHT22;16599;47.078;15.536;2023-05-29T01:50:20;10.90;99.90
29687;DHT22;16599;47.078;15.536;2023-05-29T01:52:49;10.80;99.90
29687;DHT22;16599;47.078;15.536;2023-05-29T01:55:17;10.70;99.90
29687;DHT22;16599;47.078;15.536;2023-05-29T01:57:44;10.70;99.90
29687;DHT22;16599;47.078;15.536;2023-05-29T02:00:12;10.70;99.90
29687;DHT22;16599;47.078;15.536;2023-05-29T02:02:40;10.80;99.90
29687;DHT22;16599;47.078;15.536;2023-05-29T02:05:09;10.70;99.90
29687;DHT22;16599;47.078;15.536;2023-05-29T02:07:37;10.60;99.90
29687;DHT22;16599;47.078;15.536;2023-05-29T02:10:05;10.70;99.90
29687;DHT22;16599;47.078;15.536;2023-05-29T02:12:32;10.60;99.90
29687;DHT22;16599;47.078;15.536;2023-05-29T02:14:59;10.60;99.90
29687;DHT22;16599;47.078;15.536;2023-05-29T02:17:26;10.50;99.90
29687;DHT22;16599;47.078;15.536;2023-05-29T02:19:53;10.50;99.90
29687;DHT22;16599;47.078;15.536;2023-05-29T02:22:20;10.60;99.90
29687;DHT22;16599;47.078;15.536;2023-05-29T02:24:47;10.40;99.90
29687;DHT22;16599;47.078;15.536;2023-05-29T02:27:14;10.40;99.90
29687;DHT22;16599;47.078;15.536;2023-05-29T02:29:41;10.30;99.90
29687;DHT22;16599;47.078;15.536;2023-05-29T02:32:08;10.20;99.90
29687;DHT22;16599;47.078;15.536;2023-05-29T02:34:35;10.10;99.90
29687;DHT22;16599;47.078;15.536;2023-05-29T02:37:03;10.10;99.90
29687;DHT22;16599;47.078;15.536;2023-05-29T02:39:30;10.10;99.90
29687;DHT22;16599;47.078;15.536;2023-05-29T02:41:57;10.00;99.90
29687;DHT22;16599;47.078;15.536;2023-05-29T02:44:24;10.00;99.90
29687;DHT22;16599;47.078;15.536;2023-05-29T02:46:51;10.10;99.90
29687;DHT22;16599;47.078;15.536;2023-05-29T02:49:19;10.20;99.90
29687;DHT22;16599;47.078;15.536;2023-05-29T02:51:46;10.00;99.90
29687;DHT22;16599;47.078;15.536;2023-05-29T02:54:13;10.00;99.90
29687;DHT22;16599;47.078;15.536;2023-05-29T02:56:40;10.10;99.90
29687;DHT22;16599;47.078;15.536;2023-05-29T02:59:07;10.00;99.90
29687;DHT22;16599;47.078;15.536;2023-05-29T03:01:34;10.10;99.90
29687;DHT22;16599;47.078;15.536;2023-05-29T03:04:01;10.00;99.90
29687;DHT22;16599;47.078;15.536;2023-05-29T03:06:28;9.90;99.90
29687;DHT22;16599;47.078;15.536;2023-05-29T03:08:55;9.70;99.90
29687;DHT22;16599;47.078;15.536;2023-05-29T03:11:23;9.80;99.90
29687;DHT22;16599;47.078;15.536;2023-05-29T03:13:51;9.90;99.90
29687;DHT22;16599;47.078;15.536;2023-05-29T03:16:18;9.90;99.90
29687;DHT22;16599;47.078;15.536;2023-05-29T03:18:45;10.00;99.90
29687;DHT22;16599;47.078;15.536;2023-05-29T03:21:13;9.90;99.90
29687;DHT22;16599;47.078;15.536;2023-05-29T03:23:40;9.90;99.90
29687;DHT22;16599;47.078;15.536;2023-05-29T03:26:08;10.00;99.90
29687;DHT22;16599;47.078;15.536;2023-05-29T03:28:35;9.90;99.90
29687;DHT22;16599;47.078;15.536;2023-05-29T03:31:02;9.80;99.90
29687;DHT22;16599;47.078;15.536;2023-05-29T03:33:29;9.80;99.90
29687;DHT22;16599;47.078;15.536;2023-05-29T03:35:56;9.90;99.90
29687;DHT22;16599;47.078;15.536;2023-05-29T03:38:23;10.10;99.90
29687;DHT22;16599;47.078;15.536;2023-05-29T03:40:51;10.10;99.90
29687;DHT22;16599;47.078;15.536;2023-05-29T03:43:18;10.10;99.90
29687;DHT22;16599;47.078;15.536;2023-05-29T03:45:45;9.90;99.90
29687;DHT22;16599;47.078;15.536;2023-05-29T03:48:12;9.90;99.90
29687;DHT22;16599;47.078;15.536;2023-05-29T03:50:39;10.10;99.90
29687;DHT22;16599;47.078;15.536;2023-05-29T03:53:06;10.20;99.90
29687;DHT22;16599;47.078;15.536;2023-05-29T03:55:33;10.30;99.90
29687;DHT22;16599;47.078;15.536;2023-05-29T03:57:59;10.30;99.90
29687;DHT22;16599;47.078;15.536;2023-05-29T04:00:26;10.40;99.90
29687;DHT22;16599;47.078;15.536;2023-05-29T04:02:55;10.40;99.90
29687;DHT22;16599;47.078;15.536;2023-05-29T04:05:22;10.50;99.90
29687;DHT22;16599;47.078;15.536;2023-05-29T04:07:49;10.50;99.90
29687;DHT22;16599;47.078;15.536;2023-05-29T04:10:21;10.60;99.90
29687;DHT22;16599;47.078;15.536;2023-05-29T04:12:48;10.70;99.90
29687;DHT22;16599;47.078;15.536;2023-05-29T04:15:16;10.70;99.90
29687;DHT22;16599;47.078;15.536;2023-05-29T04:17:43;10.70;99.90
29687;DHT22;16599;47.078;15.536;2023-05-29T04:20:10;10.80;99.90
29687;DHT22;16599;47.078;15.536;2023-05-29T04:22:39;10.70;99.90
29687;DHT22;16599;47.078;15.536;2023-05-29T04:25:06;10.80;99.90
29687;DHT22;16599;47.078;15.536;2023-05-29T04:27:34;11.00;99.90
29687;DHT22;16599;47.078;15.536;2023-05-29T04:30:05;11.10;99.90
29687;DHT22;16599;47.078;15.536;2023-05-29T04:32:33;11.30;99.90
29687;DHT22;16599;47.078;15.536;2023-05-29T04:35:00;11.30;99.90
29687;DHT22;16599;47.078;15.536;2023-05-29T04:37:29;11.30;99.90
29687;DHT22;16599;47.078;15.536;2023-05-29T04:39:56;11.30;99.90
29687;DHT22;16599;47.078;15.536;2023-05-29T04:42:26;11.40;99.90
29687;DHT22;16599;47.078;15.536;2023-05-29T04:44:53;11.50;99.90
29687;DHT22;16599;47.078;15.536;2023-05-29T04:47:20;11.60;99.90
29687;DHT22;16599;47.078;15.536;2023-05-29T04:49:49;11.70;99.90
29687;DHT22;16599;47.078;15.536;2023-05-29T04:52:17;11.90;99.90
29687;DHT22;16599;47.078;15.536;2023-05-29T04:54:44;12.00;99.90
29687;DHT22;16599;47.078;15.536;2023-05-29T04:57:11;12.10;99.90
29687;DHT22;16599;47.078;15.536;2023-05-29T04:59:38;12.10;99.90
29687;DHT22;16599;47.078;15.536;2023-05-29T05:02:05;12.20;99.90
29687;DHT22;16599;47.078;15.536;2023-05-29T05:04:33;12.40;99.90
29687;DHT22;16599;47.078;15.536;2023-05-29T05:07:00;12.40;99.90
29687;DHT22;16599;47.078;15.536;2023-05-29T05:09:28;12.50;99.90
29687;DHT22;16599;47.078;15.536;2023-05-29T05:11:55;12.60;99.90
29687;DHT22;16599;47.078;15.536;2023-05-29T05:14:23;12.70;99.90
29687;DHT22;16599;47.078;15.536;2023-05-29T05:16:50;12.80;99.90
29687;DHT22;16599;47.078;15.536;2023-05-29T05:19:17;12.90;99.90
29687;DHT22;16599;47.078;15.536;2023-05-29T05:21:44;13.00;99.90
29687;DHT22;16599;47.078;15.536;2023-05-29T05:24:11;13.10;99.90
29687;DHT22;16599;47.078;15.536;2023-05-29T05:26:38;13.20;99.90
29687;DHT22;16599;47.078;15.536;2023-05-29T05:29:05;13.20;99.90
29687;DHT22;16599;47.078;15.536;2023-05-29T05:31:32;13.40;99.90
29687;DHT22;16599;47.078;15.536;2023-05-29T05:33:59;13.50;99.90
29687;DHT22;16599;47.078;15.536;2023-05-29T05:36:27;13.60;99.90
29687;DHT22;16599;47.078;15.536;2023-05-29T05:38:54;13.70;99.90
29687;DHT22;16599;47.078;15.536;2023-05-29T05:41:21;13.80;99.90
29687;DHT22;16599;47.078;15.536;2023-05-29T05:43:48;13.80;99.90
29687;DHT22;16599;47.078;15.536;2023-05-29T05:46:15;13.80;99.90
29687;DHT22;16599;47.078;15.536;2023-05-29T05:48:44;13.90;99.90
29687;DHT22;16599;47.078;15.536;2023-05-29T05:51:14;13.90;99.90
29687;DHT22;16599;47.078;15.536;2023-05-29T05:53:41;13.80;99.90
29687;DHT22;16599;47.078;15.536;2023-05-29T05:56:08;13.80;99.90
29687;DHT22;16599;47.078;15.536;2023-05-29T05:58:35;13.90;99.90
29687;DHT22;16599;47.078;15.536;2023-05-29T06:01:02;13.90;99.90
29687;DHT22;16599;47.078;15.536;2023-05-29T06:03:29;14.00;99.90
29687;DHT22;16599;47.078;15.536;2023-05-29T06:05:56;14.10;99.90
29687;DHT22;16599;47.078;15.536;2023-05-29T06:08:23;14.30;99.90
29687;DHT22;16599;47.078;15.536;2023-05-29T06:10:50;14.50;99.90
29687;DHT22;16599;47.078;15.536;2023-05-29T06:13:17;14.80;99.90
29687;DHT22;16599;47.078;15.536;2023-05-29T06:15:44;15.10;99.90
29687;DHT22;16599;47.078;15.536;2023-05-29T06:18:11;15.30;99.90
29687;DHT22;16599;47.078;15.536;2023-05-29T06:20:38;15.60;99.90
29687;DHT22;16599;47.078;15.536;2023-05-29T06:23:05;15.80;99.90
29687;DHT22;16599;47.078;15.536;2023-05-29T06:25:32;16.00;99.90
29687;DHT22;16599;47.078;15.536;2023-05-29T06:28:02;16.10;99.90
29687;DHT22;16599;47.078;15.536;2023-05-29T06:30:57;16.30;99.90
29687;DHT22;16599;47.078;15.536;2023-05-29T06:33:24;16.40;99.90
29687;DHT22;16599;47.078;15.536;2023-05-29T06:35:55;16.60;99.90
29687;DHT22;16599;47.078;15.536;2023-05-29T06:38:22;16.60;99.90
29687;DHT22;16599;47.078;15.536;2023-05-29T06:40:49;16.70;99.90
29687;DHT22;16599;47.078;15.536;2023-05-29T06:43:16;16.80;99.90
29687;DHT22;16599;47.078;15.536;2023-05-29T06:45:43;16.90;99.90
29687;DHT22;16599;47.078;15.536;2023-05-29T06:48:10;17.10;99.90
29687;DHT22;16599;47.078;15.536;2023-05-29T06:50:37;17.30;98.40
29687;DHT22;16599;47.078;15.536;2023-05-29T06:53:04;17.30;96.90
29687;DHT22;16599;47.078;15.536;2023-05-29T06:55:32;17.40;97.80
29687;DHT22;16599;47.078;15.536;2023-05-29T06:57:59;17.60;97.30
29687;DHT22;16599;47.078;15.536;2023-05-29T07:00:26;17.90;97.70
29687;DHT22;16599;47.078;15.536;2023-05-29T07:02:54;18.10;96.50
29687;DHT22;16599;47.078;15.536;2023-05-29T07:05:21;18.20;95.90
29687;DHT22;16599;47.078;15.536;2023-05-29T07:07:49;18.20;95.60
29687;DHT22;16599;47.078;15.536;2023-05-29T07:10:16;18.30;95.60
29687;DHT22;16599;47.078;15.536;2023-05-29T07:12:43;18.40;95.50
29687;DHT22;16599;47.078;15.536;2023-05-29T07:15:10;18.70;95.60
29687;DHT22;16599;47.078;15.536;2023-05-29T07:18:10;18.80;93.90
29687;DHT22;16599;47.078;15.536;2023-05-29T07:20:37;18.80;91.80
29687;DHT22;16599;47.078;15.536;2023-05-29T07:23:06;18.80;90.30
29687;DHT22;16599;47.078;15.536;2023-05-29T07:25:33;18.90;89.00
29687;DHT22;16599;47.078;15.536;2023-05-29T07:28:05;18.90;88.10
29687;DHT22;16599;47.078;15.536;2023-05-29T07:30:47;19.00;80.80
29687;DHT22;16599;47.078;15.536;2023-05-29T07:33:14;19.00;81.60
29687;DHT22;16599;47.078;15.536;2023-05-29T07:35:42;19.00;80.90
29687;DHT22;16599;47.078;15.536;2023-05-29T07:38:09;19.10;81.60
29687;DHT22;16599;47.078;15.536;2023-05-29T07:40:36;19.20;83.60
29687;DHT22;16599;47.078;15.536;2023-05-29T07:43:04;19.40;88.80
29687;DHT22;16599;47.078;15.536;2023-05-29T07:45:31;19.50;80.40
29687;DHT22;16599;47.078;15.536;2023-05-29T07:47:58;19.60;84.30
29687;DHT22;16599;47.078;15.536;2023-05-29T07:50:25;19.60;84.20
29687;DHT22;16599;47.078;15.536;2023-05-29T07:52:53;19.70;85.10
29687;DHT22;16599;47.078;15.536;2023-05-29T07:55:22;19.50;85.30
29687;DHT22;16599;47.078;15.536;2023-05-29T07:58:17;19.60;83.30
29687;DHT22;16599;47.078;15.536;2023-05-29T08:00:44;19.30;84.00
29687;DHT22;16599;47.078;15.536;2023-05-29T08:03:11;19.20;79.90
29687;DHT22;16599;47.078;15.536;2023-05-29T08:05:40;19.10;81.90
29687;DHT22;16599;47.078;15.536;2023-05-29T08:08:12;18.90;80.20
29687;DHT22;16599;47.078;15.536;2023-05-29T08:10:41;18.80;81.70
29687;DHT22;16599;47.078;15.536;2023-05-29T08:13:08;18.80;83.70
29687;DHT22;16599;47.078;15.536;2023-05-29T08:15:35;18.90;83.20
29687;DHT22;16599;47.078;15.536;2023-05-29T08:18:02;19.10;82.10
29687;DHT22;16599;47.078;15.536;2023-05-29T08:20:29;19.30;81.80
29687;DHT22;16599;47.078;15.536;2023-05-29T08:22:56;19.40;80.70
29687;DHT22;16599;47.078;15.536;2023-05-29T08:25:23;19.40;82.70
29687;DHT22;16599;47.078;15.536;2023-05-29T08:27:50;19.90;82.70
29687;DHT22;16599;47.078;15.536;2023-05-29T08:30:17;20.30;83.30
29687;DHT22;16599;47.078;15.536;2023-05-29T08:32:45;20.40;79.00
29687;DHT22;16599;47.078;15.536;2023-05-29T08:35:13;20.40;81.30
29687;DHT22;16599;47.078;15.536;2023-05-29T08:37:41;20.40;79.70
29687;DHT22;16599;47.078;15.536;2023-05-29T08:40:08;20.40;80.20
29687;DHT22;16599;47.078;15.536;2023-05-29T08:42:41;20.20;78.80
29687;DHT22;16599;47.078;15.536;2023-05-29T08:45:13;19.80;79.50
29687;DHT22;16599;47.078;15.536;2023-05-29T08:47:40;19.50;78.60
29687;DHT22;16599;47.078;15.536;2023-05-29T08:50:12;19.40;80.00
29687;DHT22;16599;47.078;15.536;2023-05-29T08:52:40;19.40;81.30
29687;DHT22;16599;47.078;15.536;2023-05-29T08:55:07;19.50;86.90
29687;DHT22;16599;47.078;15.536;2023-05-29T08:57:35;19.60;87.80
29687;DHT22;16599;47.078;15.536;2023-05-29T09:00:03;19.60;85.40
29687;DHT22;16599;47.078;15.536;2023-05-29T09:02:40;19.50;79.00
29687;DHT22;16599;47.078;15.536;2023-05-29T09:05:07;19.40;80.90
29687;DHT22;16599;47.078;15.536;2023-05-29T09:07:37;19.80;83.80
29687;DHT22;16599;47.078;15.536;2023-05-29T09:10:06;20.10;79.80
29687;DHT22;16599;47.078;15.536;2023-05-29T09:12:34;20.20;82.20
29687;DHT22;16599;47.078;15.536;2023-05-29T09:15:02;20.40;82.70
29687;DHT22;16599;47.078;15.536;2023-05-29T09:17:33;20.70;80.90
29687;DHT22;16599;47.078;15.536;2023-05-29T09:20:00;20.80;77.30
29687;DHT22;16599;47.078;15.536;2023-05-29T09:22:27;20.50;74.90
29687;DHT22;16599;47.078;15.536;2023-05-29T09:24:54;20.40;76.00
29687;DHT22;16599;47.078;15.536;2023-05-29T09:27:21;20.30;76.70
29687;DHT22;16599;47.078;15.536;2023-05-29T09:29:49;20.30;74.30
29687;DHT22;16599;47.078;15.536;2023-05-29T09:32:17;20.30;74.20
29687;DHT22;16599;47.078;15.536;2023-05-29T09:34:44;20.50;75.30
29687;DHT22;16599;47.078;15.536;2023-05-29T09:37:12;20.90;74.90
29687;DHT22;16599;47.078;15.536;2023-05-29T09:42:10;21.20;69.30
29687;DHT22;16599;47.078;15.536;2023-05-29T09:44:40;20.90;69.90
29687;DHT22;16599;47.078;15.536;2023-05-29T09:47:07;20.90;74.90
29687;DHT22;16599;47.078;15.536;2023-05-29T09:49:34;21.20;74.40
29687;DHT22;16599;47.078;15.536;2023-05-29T09:52:04;21.40;76.30
29687;DHT22;16599;47.078;15.536;2023-05-29T09:54:35;21.50;72.20
29687;DHT22;16599;47.078;15.536;2023-05-29T09:57:03;21.40;71.50
29687;DHT22;16599;47.078;15.536;2023-05-29T09:59:33;21.60;77.30
29687;DHT22;16599;47.078;15.536;2023-05-29T10:02:02;21.90;71.20
29687;DHT22;16599;47.078;15.536;2023-05-29T10:04:31;21.30;71.00
29687;DHT22;16599;47.078;15.536;2023-05-29T10:07:08;20.90;72.90
29687;DHT22;16599;47.078;15.536;2023-05-29T10:09:42;20.80;70.90
29687;DHT22;16599;47.078;15.536;2023-05-29T10:12:11;20.40;72.50
29687;DHT22;16599;47.078;15.536;2023-05-29T10:14:42;20.40;69.00
29687;DHT22;16599;47.078;15.536;2023-05-29T10:17:13;20.60;70.00
29687;DHT22;16599;47.078;15.536;2023-05-29T10:19:43;21.00;72.80
29687;DHT22;16599;47.078;15.536;2023-05-29T10:22:10;21.60;68.10
29687;DHT22;16599;47.078;15.536;2023-05-29T10:24:38;21.30;65.60
29687;DHT22;16599;47.078;15.536;2023-05-29T10:27:05;21.50;66.00
29687;DHT22;16599;47.078;15.536;2023-05-29T10:29:38;21.10;66.90
29687;DHT22;16599;47.078;15.536;2023-05-29T10:32:36;20.90;66.70
29687;DHT22;16599;47.078;15.536;2023-05-29T10:40:10;22.20;69.50
29687;DHT22;16599;47.078;15.536;2023-05-29T10:42:48;21.90;64.30
29687;DHT22;16599;47.078;15.536;2023-05-29T10:50:43;22.30;66.80
29687;DHT22;16599;47.078;15.536;2023-05-29T10:53:16;22.80;66.80
29687;DHT22;16599;47.078;15.536;2023-05-29T10:55:45;22.90;62.40
29687;DHT22;16599;47.078;15.536;2023-05-29T10:58:15;22.40;62.70
29687;DHT22;16599;47.078;15.536;2023-05-29T11:00:45;21.60;63.30
29687;DHT22;16599;47.078;15.536;2023-05-29T11:03:23;21.60;63.00
29687;DHT22;16599;47.078;15.536;2023-05-29T11:06:03;22.20;62.30
29687;DHT22;16599;47.078;15.536;2023-05-29T11:08:44;22.40;59.90
29687;DHT22;16599;47.078;15.536;2023-05-29T11:13:57;22.20;58.90
29687;DHT22;16599;47.078;15.536;2023-05-29T11:18:58;22.40;59.70
29687;DHT22;16599;47.078;15.536;2023-05-29T11:24:05;22.00;57.70
29687;DHT22;16599;47.078;15.536;2023-05-29T11:26:36;22.40;59.60
29687;DHT22;16599;47.078;15.536;2023-05-29T11:29:04;22.50;59.40
29687;DHT22;16599;47.078;15.536;2023-05-29T11:31:33;22.10;59.30
29687;DHT22;16599;47.078;15.536;2023-05-29T11:34:04;22.00;58.20
29687;DHT22;16599;47.078;15.536;2023-05-29T11:36:33;21.60;60.80
29687;DHT22;16599;47.078;15.536;2023-05-29T11:39:05;21.70;62.20
29687;DHT22;16599;47.078;15.536;2023-05-29T11:41:32;22.50;61.50
29687;DHT22;16599;47.078;15.536;2023-05-29T11:44:00;23.10;58.90
29687;DHT22;16599;47.078;15.536;2023-05-29T11:46:32;23.20;56.20
29687;DHT22;16599;47.078;15.536;2023-05-29T11:49:01;23.50;55.20
29687;DHT22;16599;47.078;15.536;2023-05-29T11:51:28;23.90;55.30
29687;DHT22;16599;47.078;15.536;2023-05-29T11:53:56;24.00;58.00
29687;DHT22;16599;47.078;15.536;2023-05-29T11:56:29;23.80;55.00
29687;DHT22;16599;47.078;15.536;2023-05-29T11:58:58;23.10;55.50
29687;DHT22;16599;47.078;15.536;2023-05-29T12:01:27;23.80;58.70
29687;DHT22;16599;47.078;15.536;2023-05-29T12:03:55;23.50;54.00
29687;DHT22;16599;47.078;15.536;2023-05-29T12:06:40;23.10;53.40
29687;DHT22;16599;47.078;15.536;2023-05-29T12:09:09;22.90;54.10
29687;DHT22;16599;47.078;15.536;2023-05-29T12:11:35;23.40;54.00
29687;DHT22;16599;47.078;15.536;2023-05-29T12:14:02;23.20;55.20
29687;DHT22;16599;47.078;15.536;2023-05-29T12:16:34;23.20;57.90
29687;DHT22;16599;47.078;15.536;2023-05-29T12:19:01;24.00;54.80
29687;DHT22;16599;47.078;15.536;2023-05-29T12:21:28;23.20;53.70
29687;DHT22;16599;47.078;15.536;2023-05-29T12:23:55;23.70;56.40
29687;DHT22;16599;47.078;15.536;2023-05-29T12:26:41;24.00;50.80
29687;DHT22;16599;47.078;15.536;2023-05-29T12:29:08;23.20;53.20
29687;DHT22;16599;47.078;15.536;2023-05-29T12:31:35;23.20;54.70
29687;DHT22;16599;47.078;15.536;2023-05-29T12:34:12;23.60;52.50
29687;DHT22;16599;47.078;15.536;2023-05-29T12:36:43;23.90;51.30
29687;DHT22;16599;47.078;15.536;2023-05-29T12:39:10;23.40;53.00
29687;DHT22;16599;47.078;15.536;2023-05-29T12:41:38;23.30;52.70
29687;DHT22;16599;47.078;15.536;2023-05-29T12:44:07;23.30;52.20
29687;DHT22;16599;47.078;15.536;2023-05-29T12:46:42;23.40;51.20
29687;DHT22;16599;47.078;15.536;2023-05-29T12:49:16;23.40;49.10
29687;DHT22;16599;47.078;15.536;2023-05-29T12:51:45;23.80;50.00
29687;DHT22;16599;47.078;15.536;2023-05-29T12:54:16;23.30;49.70
29687;DHT22;16599;47.078;15.536;2023-05-29T12:56:44;23.30;50.80
29687;DHT22;16599;47.078;15.536;2023-05-29T12:59:12;23.70;51.20
29687;DHT22;16599;47.078;15.536;2023-05-29T13:01:40;23.10;49.90
29687;DHT22;16599;47.078;15.536;2023-05-29T13:04:10;23.40;49.30
29687;DHT22;16599;47.078;15.536;2023-05-29T13:06:39;23.70;51.90
29687;DHT22;16599;47.078;15.536;2023-05-29T13:09:06;23.90;48.30
29687;DHT22;16599;47.078;15.536;2023-05-29T13:11:35;24.40;48.60
29687;DHT22;16599;47.078;15.536;2023-05-29T13:14:04;24.70;50.60
29687;DHT22;16599;47.078;15.536;2023-05-29T13:16:31;24.50;47.50
29687;DHT22;16599;47.078;15.536;2023-05-29T13:18:58;23.80;47.90
29687;DHT22;16599;47.078;15.536;2023-05-29T13:21:25;23.60;47.90
29687;DHT22;16599;47.078;15.536;2023-05-29T13:23:52;23.70;47.10
29687;DHT22;16599;47.078;15.536;2023-05-29T13:26:19;23.90;45.70
29687;DHT22;16599;47.078;15.536;2023-05-29T13:28:49;24.00;47.80
29687;DHT22;16599;47.078;15.536;2023-05-29T13:31:17;24.40;46.70
29687;DHT22;16599;47.078;15.536;2023-05-29T13:33:47;24.10;45.00
29687;DHT22;16599;47.078;15.536;2023-05-29T13:36:14;24.10;46.80
29687;DHT22;16599;47.078;15.536;2023-05-29T13:38:42;24.60;45.70
29687;DHT22;16599;47.078;15.536;2023-05-29T13:41:11;24.20;45.30
29687;DHT22;16599;47.078;15.536;2023-05-29T13:43:38;23.70;47.90
29687;DHT22;16599;47.078;15.536;2023-05-29T13:46:11;23.80;44.70
29687;DHT22;16599;47.078;15.536;2023-05-29T13:48:38;23.90;46.20
29687;DHT22;16599;47.078;15.536;2023-05-29T13:51:05;24.10;45.70
29687;DHT22;16599;47.078;15.536;2023-05-29T13:53:32;24.50;46.80
29687;DHT22;16599;47.078;15.536;2023-05-29T13:55:59;23.80;47.90
29687;DHT22;16599;47.078;15.536;2023-05-29T13:58:26;24.10;48.30
29687;DHT22;16599;47.078;15.536;2023-05-29T14:00:53;24.40;45.40
29687;DHT22;16599;47.078;15.536;2023-05-29T14:03:21;24.70;46.00
29687;DHT22;16599;47.078;15.536;2023-05-29T14:05:51;24.40;50.50
29687;DHT22;16599;47.078;15.536;2023-05-29T14:08:18;24.30;48.40
29687;DHT22;16599;47.078;15.536;2023-05-29T14:10:45;24.60;49.10
29687;DHT22;16599;47.078;15.536;2023-05-29T14:13:12;24.70;45.00
29687;DHT22;16599;47.078;15.536;2023-05-29T14:15:39;24.40;48.10
29687;DHT22;16599;47.078;15.536;2023-05-29T14:18:07;24.00;49.60
29687;DHT22;16599;47.078;15.536;2023-05-29T14:20:35;23.80;50.90
29687;DHT22;16599;47.078;15.536;2023-05-29T14:23:02;23.20;50.60
29687;DHT22;16599;47.078;15.536;2023-05-29T14:25:29;23.20;52.00
29687;DHT22;16599;47.078;15.536;2023-05-29T14:27:56;23.20;51.00
29687;DHT22;16599;47.078;15.536;2023-05-29T14:30:23;23.40;50.40
29687;DHT22;16599;47.078;15.536;2023-05-29T14:32:50;23.70;49.70
29687;DHT22;16599;47.078;15.536;2023-05-29T14:35:18;23.80;49.10
29687;DHT22;16599;47.078;15.536;2023-05-29T14:37:45;23.90;47.30
29687;DHT22;16599;47.078;15.536;2023-05-29T14:40:12;23.90;49.50
29687;DHT22;16599;47.078;15.536;2023-05-29T14:42:39;24.20;49.10
29687;DHT22;16599;47.078;15.536;2023-05-29T14:45:06;24.50;49.90
29687;DHT22;16599;47.078;15.536;2023-05-29T14:47:35;24.50;46.70
29687;DHT22;16599;47.078;15.536;2023-05-29T14:50:03;24.40;48.20
29687;DHT22;16599;47.078;15.536;2023-05-29T14:52:30;23.90;49.40
29687;DHT22;16599;47.078;15.536;2023-05-29T14:54:57;23.90;47.90
29687;DHT22;16599;47.078;15.536;2023-05-29T14:57:24;23.90;48.40
29687;DHT22;16599;47.078;15.536;2023-05-29T14:59:51;23.90;48.60
29687;DHT22;16599;47.078;15.536;2023-05-29T15:02:18;24.30;51.10
29687;DHT22;16599;47.078;15.536;2023-05-29T15:04:45;23.80;47.50
29687;DHT22;16599;47.078;15.536;2023-05-29T15:07:12;24.30;49.40
29687;DHT22;16599;47.078;15.536;2023-05-29T15:09:46;24.60;47.10
29687;DHT22;16599;47.078;15.536;2023-05-29T15:12:13;24.10;47.20
29687;DHT22;16599;47.078;15.536;2023-05-29T15:14:40;24.10;46.40
29687;DHT22;16599;47.078;15.536;2023-05-29T15:17:07;24.40;47.20
29687;DHT22;16599;47.078;15.536;2023-05-29T15:19:34;24.60;46.80
29687;DHT22;16599;47.078;15.536;2023-05-29T15:22:01;24.30;47.50
29687;DHT22;16599;47.078;15.536;2023-05-29T15:24:29;24.00;48.10
29687;DHT22;16599;47.078;15.536;2023-05-29T15:26:56;23.90;48.20
29687;DHT22;16599;47.078;15.536;2023-05-29T15:29:25;23.90;48.30
29687;DHT22;16599;47.078;15.536;2023-05-29T15:31:53;24.00;48.00
29687;DHT22;16599;47.078;15.536;2023-05-29T15:34:20;24.00;47.00
29687;DHT22;16599;47.078;15.536;2023-05-29T15:36:47;24.00;46.90
29687;DHT22;16599;47.078;15.536;2023-05-29T15:39:14;24.10;48.30
29687;DHT22;16599;47.078;15.536;2023-05-29T15:41:44;23.90;45.70
29687;DHT22;16599;47.078;15.536;2023-05-29T15:44:11;24.20;47.00
29687;DHT22;16599;47.078;15.536;2023-05-29T15:46:38;24.20;47.90
29687;DHT22;16599;47.078;15.536;2023-05-29T15:49:06;24.20;47.90
29687;DHT22;16599;47.078;15.536;2023-05-29T15:51:33;24.30;46.60
29687;DHT22;16599;47.078;15.536;2023-05-29T15:54:03;24.10;45.70
29687;DHT22;16599;47.078;15.536;2023-05-29T15:56:30;24.10;46.00
29687;DHT22;16599;47.078;15.536;2023-05-29T15:58:57;23.60;48.30